sensor_id;sensor_type;location;lat;lon;timestamp;P1;durP1;ratioP1;P2;durP2;ratioP2
28311;SDS011;15572;48.810;9.148;2023-11-19T00:02:00;3.53;;;2.27;;
28311;SDS011;15572;48.810;9.148;2023-11-19T00:06:57;3.80;;;2.60;;
28311;SDS011;15572;48.810;9.148;2023-11-19T00:11:58;4.00;;;3.13;;
28311;SDS011;15572;48.810;9.148;2023-11-19T00:16:55;3.10;;;2.80;;
28311;SDS011;15572;48.810;9.148;2023-11-19T00:21:53;3.03;;;2.60;;
28311;SDS011;15572;48.810;9.148;2023-11-19T00:26:49;4.30;;;2.67;;
28311;SDS011;15572;48.810;9.148;2023-11-19T00:31:46;3.57;;;2.47;;
28311;SDS011;15572;48.810;9.148;2023-11-19T00:36:42;1.70;;;1.40;;
28311;SDS011;15572;48.810;9.148;2023-11-19T00:41:41;2.27;;;1.40;;
28311;SDS011;15572;48.810;9.148;2023-11-19T00:46:37;1.20;;;1.10;;
28311;SDS011;15572;48.810;9.148;2023-11-19T00:51:34;0.80;;;0.80;;
28311;SDS011;15572;48.810;9.148;2023-11-19T00:56:30;1.20;;;1.00;;
28311;SDS011;15572;48.810;9.148;2023-11-19T01:01:28;3.53;;;1.80;;
28311;SDS011;15572;48.810;9.148;2023-11-19T01:06:27;2.07;;;1.30;;
28311;SDS011;15572;48.810;9.148;2023-11-19T01:11:24;2.37;;;1.00;;
28311;SDS011;15572;48.810;9.148;2023-11-19T01:16:21;1.47;;;0.67;;
28311;SDS011;15572;48.810;9.148;2023-11-19T01:21:19;0.97;;;0.83;;
28311;SDS011;15572;48.810;9.148;2023-11-19T01:26:17;1.60;;;0.90;;
28311;SDS011;15572;48.810;9.148;2023-11-19T01:31:14;7.00;;;0.93;;
28311;SDS011;15572;48.810;9.148;2023-11-19T01:36:12;1.47;;;0.87;;
28311;SDS011;15572;48.810;9.148;2023-11-19T01:41:10;1.10;;;1.00;;
28311;SDS011;15572;48.810;9.148;2023-11-19T01:46:08;0.97;;;0.80;;
28311;SDS011;15572;48.810;9.148;2023-11-19T01:51:06;4.47;;;2.33;;
28311;SDS011;15572;48.810;9.148;2023-11-19T01:56:04;4.70;;;1.60;;
28311;SDS011;15572;48.810;9.148;2023-11-19T02:01:05;1.87;;;1.60;;
28311;SDS011;15572;48.810;9.148;2023-11-19T02:06:02;2.23;;;1.10;;
28311;SDS011;15572;48.810;9.148;2023-11-19T02:10:59;1.37;;;0.93;;
28311;SDS011;15572;48.810;9.148;2023-11-19T02:15:55;0.47;;;0.40;;
28311;SDS011;15572;48.810;9.148;2023-11-19T02:20:53;0.50;;;0.50;;
28311;SDS011;15572;48.810;9.148;2023-11-19T02:25:54;1.43;;;0.70;;
28311;SDS011;15572;48.810;9.148;2023-11-19T02:30:59;0.60;;;0.60;;
28311;SDS011;15572;48.810;9.148;2023-11-19T02:35:55;0.80;;;0.67;;
28311;SDS011;15572;48.810;9.148;2023-11-19T02:40:52;0.50;;;0.50;;
28311;SDS011;15572;48.810;9.148;2023-11-19T02:45:48;1.67;;;0.60;;
28311;SDS011;15572;48.810;9.148;2023-11-19T02:50:48;1.80;;;0.60;;
28311;SDS011;15572;48.810;9.148;2023-11-19T02:55:44;1.07;;;0.40;;
28311;SDS011;15572;48.810;9.148;2023-11-19T03:00:45;0.50;;;0.50;;
28311;SDS011;15572;48.810;9.148;2023-11-19T03:05:48;0.40;;;0.40;;
28311;SDS011;15572;48.810;9.148;2023-11-19T03:10:45;1.03;;;0.50;;
28311;SDS011;15572;48.810;9.148;2023-11-19T03:15:41;0.50;;;0.40;;
28311;SDS011;15572;48.810;9.148;2023-11-19T03:20:37;0.40;;;0.40;;
28311;SDS011;15572;48.810;9.148;2023-11-19T03:25:35;0.40;;;0.40;;
28311;SDS011;15572;48.810;9.148;2023-11-19T03:30:32;0.63;;;0.40;;
28311;SDS011;15572;48.810;9.148;2023-11-19T03:35:28;1.10;;;0.30;;
28311;SDS011;15572;48.810;9.148;2023-11-19T03:40:25;1.67;;;0.40;;
28311;SDS011;15572;48.810;9.148;2023-11-19T03:45:23;0.40;;;0.40;;
28311;SDS011;15572;48.810;9.148;2023-11-19T03:50:20;0.30;;;0.30;;
28311;SDS011;15572;48.810;9.148;2023-11-19T03:55:16;1.60;;;0.40;;
28311;SDS011;15572;48.810;9.148;2023-11-19T04:00:13;0.47;;;0.40;;
28311;SDS011;15572;48.810;9.148;2023-11-19T04:05:12;1.40;;;0.30;;
28311;SDS011;15572;48.810;9.148;2023-11-19T04:10:08;0.47;;;0.47;;
28311;SDS011;15572;48.810;9.148;2023-11-19T04:15:06;0.47;;;0.47;;
28311;SDS011;15572;48.810;9.148;2023-11-19T04:20:04;0.30;;;0.30;;
28311;SDS011;15572;48.810;9.148;2023-11-19T04:25:07;0.37;;;0.30;;
28311;SDS011;15572;48.810;9.148;2023-11-19T04:30:05;1.17;;;0.30;;
28311;SDS011;15572;48.810;9.148;2023-11-19T04:35:05;0.30;;;0.30;;
28311;SDS011;15572;48.810;9.148;2023-11-19T04:40:03;0.37;;;0.37;;
28311;SDS011;15572;48.810;9.148;2023-11-19T04:45:01;0.30;;;0.30;;
28311;SDS011;15572;48.810;9.148;2023-11-19T04:49:57;0.43;;;0.30;;
28311;SDS011;15572;48.810;9.148;2023-11-19T04:54:54;0.30;;;0.30;;
28311;SDS011;15572;48.810;9.148;2023-11-19T04:59:50;0.30;;;0.30;;
28311;SDS011;15572;48.810;9.148;2023-11-19T05:04:48;0.40;;;0.40;;
28311;SDS011;15572;48.810;9.148;2023-11-19T05:09:44;1.20;;;0.40;;
28311;SDS011;15572;48.810;9.148;2023-11-19T05:14:41;0.73;;;0.40;;
28311;SDS011;15572;48.810;9.148;2023-11-19T05:19:43;0.40;;;0.40;;
28311;SDS011;15572;48.810;9.148;2023-11-19T05:24:41;1.40;;;0.30;;
28311;SDS011;15572;48.810;9.148;2023-11-19T05:29:37;0.30;;;0.30;;
28311;SDS011;15572;48.810;9.148;2023-11-19T05:34:34;0.30;;;0.30;;
28311;SDS011;15572;48.810;9.148;2023-11-19T05:39:31;0.53;;;0.50;;
28311;SDS011;15572;48.810;9.148;2023-11-19T05:44:29;0.30;;;0.30;;
28311;SDS011;15572;48.810;9.148;2023-11-19T05:49:25;0.40;;;0.40;;
28311;SDS011;15572;48.810;9.148;2023-11-19T05:54:21;0.30;;;0.30;;
28311;SDS011;15572;48.810;9.148;2023-11-19T05:59:18;0.30;;;0.30;;
28311;SDS011;15572;48.810;9.148;2023-11-19T06:04:16;0.60;;;0.40;;
28311;SDS011;15572;48.810;9.148;2023-11-19T06:09:12;0.23;;;0.23;;
28311;SDS011;15572;48.810;9.148;2023-11-19T06:14:09;1.40;;;0.30;;
28311;SDS011;15572;48.810;9.148;2023-11-19T06:19:06;0.40;;;0.40;;
28311;SDS011;15572;48.810;9.148;2023-11-19T06:24:04;0.30;;;0.30;;
28311;SDS011;15572;48.810;9.148;2023-11-19T06:29:01;0.30;;;0.30;;
28311;SDS011;15572;48.810;9.148;2023-11-19T06:33:57;0.93;;;0.40;;
28311;SDS011;15572;48.810;9.148;2023-11-19T06:38:54;1.13;;;0.50;;
28311;SDS011;15572;48.810;9.148;2023-11-19T06:43:52;0.83;;;0.30;;
28311;SDS011;15572;48.810;9.148;2023-11-19T06:48:48;0.70;;;0.40;;
28311;SDS011;15572;48.810;9.148;2023-11-19T06:53:45;0.40;;;0.40;;
28311;SDS011;15572;48.810;9.148;2023-11-19T06:58:41;2.73;;;0.50;;
28311;SDS011;15572;48.810;9.148;2023-11-19T07:03:39;0.40;;;0.40;;
28311;SDS011;15572;48.810;9.148;2023-11-19T07:08:35;0.50;;;0.50;;
28311;SDS011;15572;48.810;9.148;2023-11-19T07:13:33;0.40;;;0.40;;
28311;SDS011;15572;48.810;9.148;2023-11-19T07:18:30;0.70;;;0.40;;
28311;SDS011;15572;48.810;9.148;2023-11-19T07:23:28;2.30;;;0.40;;
28311;SDS011;15572;48.810;9.148;2023-11-19T07:28:24;1.07;;;0.43;;
28311;SDS011;15572;48.810;9.148;2023-11-19T07:33:20;1.23;;;0.40;;
28311;SDS011;15572;48.810;9.148;2023-11-19T07:38:17;0.73;;;0.50;;
28311;SDS011;15572;48.810;9.148;2023-11-19T07:43:15;2.43;;;0.60;;
28311;SDS011;15572;48.810;9.148;2023-11-19T07:48:11;0.40;;;0.40;;
28311;SDS011;15572;48.810;9.148;2023-11-19T07:53:08;0.40;;;0.40;;
28311;SDS011;15572;48.810;9.148;2023-11-19T07:58:05;1.13;;;0.40;;
28311;SDS011;15572;48.810;9.148;2023-11-19T08:03:03;0.77;;;0.50;;
28311;SDS011;15572;48.810;9.148;2023-11-19T08:07:59;0.90;;;0.40;;
28311;SDS011;15572;48.810;9.148;2023-11-19T08:12:56;0.40;;;0.40;;
28311;SDS011;15572;48.810;9.148;2023-11-19T08:17:53;0.50;;;0.50;;
28311;SDS011;15572;48.810;9.148;2023-11-19T08:22:50;1.10;;;0.37;;
28311;SDS011;15572;48.810;9.148;2023-11-19T08:27:47;0.50;;;0.50;;
28311;SDS011;15572;48.810;9.148;2023-11-19T08:32:44;1.13;;;0.50;;
28311;SDS011;15572;48.810;9.148;2023-11-19T08:37:40;0.43;;;0.43;;
28311;SDS011;15572;48.810;9.148;2023-11-19T08:42:38;1.20;;;0.43;;
28311;SDS011;15572;48.810;9.148;2023-11-19T08:47:35;0.57;;;0.47;;
28311;SDS011;15572;48.810;9.148;2023-11-19T08:52:31;1.67;;;0.40;;
28311;SDS011;15572;48.810;9.148;2023-11-19T08:57:28;1.97;;;0.60;;
28311;SDS011;15572;48.810;9.148;2023-11-19T09:02:25;0.70;;;0.50;;
28311;SDS011;15572;48.810;9.148;2023-11-19T09:07:22;0.50;;;0.50;;
28311;SDS011;15572;48.810;9.148;2023-11-19T09:12:19;0.57;;;0.50;;
28311;SDS011;15572;48.810;9.148;2023-11-19T09:17:15;2.03;;;0.50;;
28311;SDS011;15572;48.810;9.148;2023-11-19T09:22:14;0.57;;;0.53;;
28311;SDS011;15572;48.810;9.148;2023-11-19T09:27:11;1.63;;;0.60;;
28311;SDS011;15572;48.810;9.148;2023-11-19T09:32:07;1.70;;;0.70;;
28311;SDS011;15572;48.810;9.148;2023-11-19T09:37:04;0.60;;;0.50;;
28311;SDS011;15572;48.810;9.148;2023-11-19T09:42:02;1.13;;;0.60;;
28311;SDS011;15572;48.810;9.148;2023-11-19T09:46:59;1.80;;;0.53;;
28311;SDS011;15572;48.810;9.148;2023-11-19T09:51:56;1.17;;;0.73;;
28311;SDS011;15572;48.810;9.148;2023-11-19T09:56:53;1.43;;;0.70;;
28311;SDS011;15572;48.810;9.148;2023-11-19T10:01:55;1.70;;;0.60;;
28311;SDS011;15572;48.810;9.148;2023-11-19T10:06:52;1.17;;;0.90;;
28311;SDS011;15572;48.810;9.148;2023-11-19T10:11:49;2.00;;;0.70;;
28311;SDS011;15572;48.810;9.148;2023-11-19T10:16:45;1.30;;;0.80;;
28311;SDS011;15572;48.810;9.148;2023-11-19T10:21:43;1.80;;;0.70;;
28311;SDS011;15572;48.810;9.148;2023-11-19T10:26:42;1.10;;;0.60;;
28311;SDS011;15572;48.810;9.148;2023-11-19T10:31:38;1.23;;;0.60;;
28311;SDS011;15572;48.810;9.148;2023-11-19T10:36:38;2.97;;;0.70;;
28311;SDS011;15572;48.810;9.148;2023-11-19T10:41:37;1.03;;;0.70;;
28311;SDS011;15572;48.810;9.148;2023-11-19T10:46:37;1.40;;;0.60;;
28311;SDS011;15572;48.810;9.148;2023-11-19T10:51:35;1.67;;;0.60;;
28311;SDS011;15572;48.810;9.148;2023-11-19T10:56:31;1.07;;;0.50;;
28311;SDS011;15572;48.810;9.148;2023-11-19T11:01:32;1.73;;;1.00;;
28311;SDS011;15572;48.810;9.148;2023-11-19T11:06:35;1.83;;;1.00;;
28311;SDS011;15572;48.810;9.148;2023-11-19T11:11:32;0.67;;;0.53;;
28311;SDS011;15572;48.810;9.148;2023-11-19T11:16:31;0.53;;;0.40;;
28311;SDS011;15572;48.810;9.148;2023-11-19T11:21:27;1.43;;;0.60;;
28311;SDS011;15572;48.810;9.148;2023-11-19T11:26:33;2.67;;;0.80;;
28311;SDS011;15572;48.810;9.148;2023-11-19T11:31:43;1.10;;;0.60;;
28311;SDS011;15572;48.810;9.148;2023-11-19T11:36:48;1.77;;;0.90;;
28311;SDS011;15572;48.810;9.148;2023-11-19T11:58:17;1.37;;;0.70;;
28311;SDS011;15572;48.810;9.148;2023-11-19T12:03:14;2.37;;;0.90;;
28311;SDS011;15572;48.810;9.148;2023-11-19T12:08:11;1.57;;;0.67;;
28311;SDS011;15572;48.810;9.148;2023-11-19T12:13:11;1.57;;;0.87;;
28311;SDS011;15572;48.810;9.148;2023-11-19T12:18:08;3.03;;;0.70;;
28311;SDS011;15572;48.810;9.148;2023-11-19T12:23:04;1.70;;;0.87;;
28311;SDS011;15572;48.810;9.148;2023-11-19T12:28:02;2.43;;;0.77;;
28311;SDS011;15572;48.810;9.148;2023-11-19T12:33:07;1.53;;;0.67;;
28311;SDS011;15572;48.810;9.148;2023-11-19T12:38:04;1.27;;;0.50;;
28311;SDS011;15572;48.810;9.148;2023-11-19T12:43:01;0.60;;;0.60;;
28311;SDS011;15572;48.810;9.148;2023-11-19T12:48:08;0.73;;;0.60;;
28311;SDS011;15572;48.810;9.148;2023-11-19T12:53:06;1.23;;;0.63;;
28311;SDS011;15572;48.810;9.148;2023-11-19T12:58:02;0.87;;;0.50;;
28311;SDS011;15572;48.810;9.148;2023-11-19T13:03:00;1.10;;;0.60;;
28311;SDS011;15572;48.810;9.148;2023-11-19T13:08:04;1.03;;;0.70;;
28311;SDS011;15572;48.810;9.148;2023-11-19T13:13:02;0.57;;;0.50;;
28311;SDS011;15572;48.810;9.148;2023-11-19T13:18:00;0.80;;;0.50;;
28311;SDS011;15572;48.810;9.148;2023-11-19T13:22:57;0.87;;;0.50;;
28311;SDS011;15572;48.810;9.148;2023-11-19T13:27:56;1.53;;;0.67;;
28311;SDS011;15572;48.810;9.148;2023-11-19T13:32:53;0.50;;;0.50;;
28311;SDS011;15572;48.810;9.148;2023-11-19T13:37:50;1.27;;;0.70;;
28311;SDS011;15572;48.810;9.148;2023-11-19T13:42:46;1.77;;;0.80;;
28311;SDS011;15572;48.810;9.148;2023-11-19T13:47:45;3.20;;;0.90;;
28311;SDS011;15572;48.810;9.148;2023-11-19T13:52:42;1.20;;;0.70;;
28311;SDS011;15572;48.810;9.148;2023-11-19T13:57:41;1.63;;;0.60;;
28311;SDS011;15572;48.810;9.148;2023-11-19T14:02:38;1.53;;;0.70;;
28311;SDS011;15572;48.810;9.148;2023-11-19T14:07:36;0.80;;;0.60;;
28311;SDS011;15572;48.810;9.148;2023-11-19T14:12:33;1.90;;;0.60;;
28311;SDS011;15572;48.810;9.148;2023-11-19T14:17:29;1.63;;;0.83;;
28311;SDS011;15572;48.810;9.148;2023-11-19T14:22:25;1.30;;;0.70;;
28311;SDS011;15572;48.810;9.148;2023-11-19T14:27:24;1.27;;;0.60;;
28311;SDS011;15572;48.810;9.148;2023-11-19T14:32:20;1.37;;;0.77;;
28311;SDS011;15572;48.810;9.148;2023-11-19T14:37:16;2.07;;;0.80;;
28311;SDS011;15572;48.810;9.148;2023-11-19T14:42:13;1.93;;;0.63;;
28311;SDS011;15572;48.810;9.148;2023-11-19T14:47:11;0.63;;;0.60;;
28311;SDS011;15572;48.810;9.148;2023-11-19T14:52:07;1.23;;;0.67;;
28311;SDS011;15572;48.810;9.148;2023-11-19T14:57:05;0.57;;;0.47;;
28311;SDS011;15572;48.810;9.148;2023-11-19T15:02:03;1.47;;;0.80;;
28311;SDS011;15572;48.810;9.148;2023-11-19T15:07:01;2.77;;;0.93;;
28311;SDS011;15572;48.810;9.148;2023-11-19T15:11:59;1.50;;;0.70;;
28311;SDS011;15572;48.810;9.148;2023-11-19T15:16:57;1.50;;;0.60;;
28311;SDS011;15572;48.810;9.148;2023-11-19T15:21:53;1.60;;;0.60;;
28311;SDS011;15572;48.810;9.148;2023-11-19T15:26:52;1.10;;;0.60;;
28311;SDS011;15572;48.810;9.148;2023-11-19T15:31:50;0.97;;;0.60;;
28311;SDS011;15572;48.810;9.148;2023-11-19T15:36:46;2.37;;;0.70;;
28311;SDS011;15572;48.810;9.148;2023-11-19T15:41:43;0.53;;;0.53;;
28311;SDS011;15572;48.810;9.148;2023-11-19T15:46:42;0.90;;;0.70;;
28311;SDS011;15572;48.810;9.148;2023-11-19T15:51:38;2.00;;;0.60;;
28311;SDS011;15572;48.810;9.148;2023-11-19T15:56:35;1.57;;;0.70;;
28311;SDS011;15572;48.810;9.148;2023-11-19T16:01:31;1.67;;;0.70;;
28311;SDS011;15572;48.810;9.148;2023-11-19T16:06:29;2.67;;;0.97;;
28311;SDS011;15572;48.810;9.148;2023-11-19T16:11:25;2.17;;;0.90;;
28311;SDS011;15572;48.810;9.148;2023-11-19T16:16:22;1.13;;;0.70;;
28311;SDS011;15572;48.810;9.148;2023-11-19T16:21:18;0.70;;;0.70;;
28311;SDS011;15572;48.810;9.148;2023-11-19T16:26:16;2.60;;;1.83;;
28311;SDS011;15572;48.810;9.148;2023-11-19T16:31:12;1.13;;;0.70;;
28311;SDS011;15572;48.810;9.148;2023-11-19T16:36:11;1.37;;;0.73;;
28311;SDS011;15572;48.810;9.148;2023-11-19T16:41:08;1.77;;;0.83;;
28311;SDS011;15572;48.810;9.148;2023-11-19T16:46:08;1.47;;;0.80;;
28311;SDS011;15572;48.810;9.148;2023-11-19T16:51:08;2.50;;;0.80;;
28311;SDS011;15572;48.810;9.148;2023-11-19T16:56:08;1.80;;;0.73;;
28311;SDS011;15572;48.810;9.148;2023-11-19T17:01:05;3.40;;;1.00;;
28311;SDS011;15572;48.810;9.148;2023-11-19T17:06:03;1.37;;;0.90;;
28311;SDS011;15572;48.810;9.148;2023-11-19T17:11:00;2.17;;;0.80;;
28311;SDS011;15572;48.810;9.148;2023-11-19T17:15:57;1.40;;;0.87;;
28311;SDS011;15572;48.810;9.148;2023-11-19T17:20:53;3.70;;;0.80;;
28311;SDS011;15572;48.810;9.148;2023-11-19T17:25:51;2.73;;;0.80;;
28311;SDS011;15572;48.810;9.148;2023-11-19T17:30:48;3.73;;;1.00;;
28311;SDS011;15572;48.810;9.148;2023-11-19T17:35:45;2.13;;;1.00;;
28311;SDS011;15572;48.810;9.148;2023-11-19T17:40:41;1.97;;;0.90;;
28311;SDS011;15572;48.810;9.148;2023-11-19T17:45:39;1.93;;;0.80;;
28311;SDS011;15572;48.810;9.148;2023-11-19T17:50:35;2.33;;;0.90;;
28311;SDS011;15572;48.810;9.148;2023-11-19T17:55:32;2.00;;;1.10;;
28311;SDS011;15572;48.810;9.148;2023-11-19T18:00:28;2.90;;;0.87;;
28311;SDS011;15572;48.810;9.148;2023-11-19T18:05:26;4.43;;;1.20;;
28311;SDS011;15572;48.810;9.148;2023-11-19T18:10:22;3.20;;;1.00;;
28311;SDS011;15572;48.810;9.148;2023-11-19T18:15:19;2.27;;;1.07;;
28311;SDS011;15572;48.810;9.148;2023-11-19T18:20:16;1.80;;;1.10;;
28311;SDS011;15572;48.810;9.148;2023-11-19T18:25:14;2.17;;;0.90;;
28311;SDS011;15572;48.810;9.148;2023-11-19T18:30:12;2.20;;;1.00;;
28311;SDS011;15572;48.810;9.148;2023-11-19T18:35:10;1.33;;;1.00;;
28311;SDS011;15572;48.810;9.148;2023-11-19T18:40:07;4.10;;;1.30;;
28311;SDS011;15572;48.810;9.148;2023-11-19T18:45:08;2.23;;;0.90;;
28311;SDS011;15572;48.810;9.148;2023-11-19T18:50:05;2.33;;;1.20;;
28311;SDS011;15572;48.810;9.148;2023-11-19T18:55:03;4.30;;;1.23;;
28311;SDS011;15572;48.810;9.148;2023-11-19T19:00:01;1.77;;;1.23;;
28311;SDS011;15572;48.810;9.148;2023-11-19T19:05:03;2.73;;;1.47;;
28311;SDS011;15572;48.810;9.148;2023-11-19T19:10:00;3.37;;;1.67;;
28311;SDS011;15572;48.810;9.148;2023-11-19T19:14:57;2.97;;;1.40;;
28311;SDS011;15572;48.810;9.148;2023-11-19T19:19:55;4.83;;;1.80;;
28311;SDS011;15572;48.810;9.148;2023-11-19T19:24:53;2.33;;;1.33;;
28311;SDS011;15572;48.810;9.148;2023-11-19T19:29:50;4.17;;;1.70;;
28311;SDS011;15572;48.810;9.148;2023-11-19T19:34:46;7.37;;;1.80;;
28311;SDS011;15572;48.810;9.148;2023-11-19T19:39:43;7.23;;;1.77;;
28311;SDS011;15572;48.810;9.148;2023-11-19T19:44:40;5.83;;;1.97;;
28311;SDS011;15572;48.810;9.148;2023-11-19T19:49:37;5.97;;;1.87;;
28311;SDS011;15572;48.810;9.148;2023-11-19T19:54:33;5.73;;;1.80;;
28311;SDS011;15572;48.810;9.148;2023-11-19T19:59:30;6.93;;;2.00;;
28311;SDS011;15572;48.810;9.148;2023-11-19T20:04:29;6.70;;;1.93;;
28311;SDS011;15572;48.810;9.148;2023-11-19T20:09:26;6.87;;;1.77;;
28311;SDS011;15572;48.810;9.148;2023-11-19T20:14:22;7.53;;;1.93;;
28311;SDS011;15572;48.810;9.148;2023-11-19T20:19:22;6.23;;;1.70;;
28311;SDS011;15572;48.810;9.148;2023-11-19T20:24:20;5.50;;;1.63;;
28311;SDS011;15572;48.810;9.148;2023-11-19T20:29:17;7.93;;;1.90;;
28311;SDS011;15572;48.810;9.148;2023-11-19T20:34:13;4.87;;;2.03;;
28311;SDS011;15572;48.810;9.148;2023-11-19T20:39:10;8.93;;;1.80;;
28311;SDS011;15572;48.810;9.148;2023-11-19T20:44:10;6.43;;;1.80;;
28311;SDS011;15572;48.810;9.148;2023-11-19T20:49:07;7.87;;;2.00;;
28311;SDS011;15572;48.810;9.148;2023-11-19T20:54:03;6.57;;;1.80;;
28311;SDS011;15572;48.810;9.148;2023-11-19T20:59:01;8.43;;;2.00;;
28311;SDS011;15572;48.810;9.148;2023-11-19T21:04:00;5.40;;;1.60;;
28311;SDS011;15572;48.810;9.148;2023-11-19T21:08:56;11.13;;;1.70;;
28311;SDS011;15572;48.810;9.148;2023-11-19T21:13:53;8.60;;;1.10;;
28311;SDS011;15572;48.810;9.148;2023-11-19T21:18:49;8.53;;;1.87;;
28311;SDS011;15572;48.810;9.148;2023-11-19T21:23:47;8.93;;;2.00;;
28311;SDS011;15572;48.810;9.148;2023-11-19T21:28:43;6.20;;;1.57;;
28311;SDS011;15572;48.810;9.148;2023-11-19T21:33:40;11.43;;;1.70;;
28311;SDS011;15572;48.810;9.148;2023-11-19T21:38:37;10.50;;;1.90;;
28311;SDS011;15572;48.810;9.148;2023-11-19T21:43:34;7.93;;;1.23;;
28311;SDS011;15572;48.810;9.148;2023-11-19T21:48:31;9.50;;;1.90;;
28311;SDS011;15572;48.810;9.148;2023-11-19T21:53:27;10.63;;;2.67;;
28311;SDS011;15572;48.810;9.148;2023-11-19T21:58:24;9.07;;;1.83;;
28311;SDS011;15572;48.810;9.148;2023-11-19T22:03:22;6.03;;;1.43;;
28311;SDS011;15572;48.810;9.148;2023-11-19T22:08:19;9.90;;;1.93;;
28311;SDS011;15572;48.810;9.148;2023-11-19T22:13:15;12.10;;;1.90;;
28311;SDS011;15572;48.810;9.148;2023-11-19T22:18:11;10.20;;;1.90;;
28311;SDS011;15572;48.810;9.148;2023-11-19T22:23:09;11.47;;;1.93;;
28311;SDS011;15572;48.810;9.148;2023-11-19T22:28:06;8.43;;;2.03;;
28311;SDS011;15572;48.810;9.148;2023-11-19T22:33:02;9.50;;;1.97;;
28311;SDS011;15572;48.810;9.148;2023-11-19T22:38:02;10.47;;;1.90;;
28311;SDS011;15572;48.810;9.148;2023-11-19T22:43:00;9.47;;;1.70;;
28311;SDS011;15572;48.810;9.148;2023-11-19T22:47:57;7.10;;;1.97;;
28311;SDS011;15572;48.810;9.148;2023-11-19T22:52:53;9.60;;;2.23;;
28311;SDS011;15572;48.810;9.148;2023-11-19T22:57:51;15.20;;;2.53;;
28311;SDS011;15572;48.810;9.148;2023-11-19T23:02:49;8.17;;;2.03;;
28311;SDS011;15572;48.810;9.148;2023-11-19T23:07:46;10.83;;;1.93;;
28311;SDS011;15572;48.810;9.148;2023-11-19T23:12:42;10.13;;;2.57;;
28311;SDS011;15572;48.810;9.148;2023-11-19T23:17:40;7.50;;;1.50;;
28311;SDS011;15572;48.810;9.148;2023-11-19T23:22:38;10.13;;;1.93;;
28311;SDS011;15572;48.810;9.148;2023-11-19T23:27:34;11.63;;;2.00;;
28311;SDS011;15572;48.810;9.148;2023-11-19T23:32:32;8.23;;;1.90;;
28311;SDS011;15572;48.810;9.148;2023-11-19T23:37:29;13.93;;;1.97;;
28311;SDS011;15572;48.810;9.148;2023-11-19T23:42:27;11.13;;;2.17;;
28311;SDS011;15572;48.810;9.148;2023-11-19T23:47:23;13.13;;;1.97;;
28311;SDS011;15572;48.810;9.148;2023-11-19T23:52:20;12.47;;;2.00;;
28311;SDS011;15572;48.810;9.148;2023-11-19T23:57:16;13.23;;;2.00;;
